This demonstration page uses our WeatherBlox Daily Observations layout. Learn more.

39.01783, -85.05884

Hourly Observations for May 28, 2019

Temp ( °F °C ) Dew Point ( °F °C ) Humidity (%) Winds ( mph kmh ) Pressure ( in mb ) Visibility ( mi km ) Precip ( " mm )
12:52 am 00:52 Mostly Cloudy 74 23.3 65 18.3 74 74 SSW 8 13 29.8 1009 10 16.09344 0 0
1:52 am 01:52 Mostly Cloudy 74 23.3 65 18.3 74 74 SSW 9 15 29.77 1008 10 16.09344 0 0
2:52 am 02:52 Partly Cloudy 73 22.8 65 18.3 76 76 SSW 9 15 29.77 1008 10 16.09344 0 0
3:52 am 03:52 Cloudy 74 23.3 66 18.9 76 76 SSW 7 11 29.77 1008 10 16.09344 0 0
4:52 am 04:52 Mostly Clear 73 22.8 66 18.9 79 79 SSW 10 17 29.77 1008 10 16.09344 0 0
5:52 am 05:52 Mostly Clear 73 22.8 65 18.3 76 76 SW 9 15 29.77 1008 10 16.09344 0 0
6:52 am 06:52 Mostly Sunny 72 22.2 65 18.3 79 79 SW 8 13 29.8 1009 9 14.484096 0 0
7:52 am 07:52 Partly Cloudy 74 23.3 66 18.9 76 76 SW 8 13 29.8 1009 9 14.484096 0 0
8:52 am 08:52 Partly Cloudy 77 25 66 18.9 69 69 WSW 12 19 29.8 1009 10 16.09344 0 0
9:52 am 09:52 Partly Cloudy 79 26.1 67 19.4 67 67 WSW 13 20 29.8 1009 10 16.09344 0 0
10:52 am 10:52 Mostly Sunny 81 27.2 67 19.4 62 62 SW 15 24 29.77 1008 10 16.09344 0 0
11:52 am 11:52 Mostly Cloudy 82 27.8 66 18.9 58 58 WSW 14 22 29.8 1009 10 16.09344 0 0
12:52 pm 12:52 Partly Cloudy 84 28.9 67 19.4 57 57 SW 14 22 29.8 1009 10 16.09344 0 0
1:52 pm 13:52 Mostly Sunny 85 29.4 65 18.3 51 51 SW 15 24 29.77 1008 10 16.09344 0 0
2:52 pm 14:52 Partly Cloudy 85 29.4 65 18.3 51 51 SW 15 24 29.77 1008 10 16.09344 0 0
3:52 pm 15:52 Partly Cloudy 86 30 65 18.3 49 49 SW 9 15 29.77 1008 10 16.09344 0 0
4:52 pm 16:52 Partly Cloudy 86 30 64 17.8 48 48 SW 15 24 29.74 1007 10 16.09344 0 0
5:52 pm 17:52 Partly Cloudy 84 28.9 64 17.8 51 51 WSW 10 17 29.74 1007 10 16.09344 0 0
6:52 pm 18:52 Mostly Sunny 84 28.9 64 17.8 51 51 W 12 19 29.74 1007 10 16.09344 0 0
7:52 pm 19:52 Mostly Sunny 83 28.3 64 17.8 53 53 WSW 6 9 29.74 1007 10 16.09344 0 0
8:52 pm 20:52 Partly Cloudy 78 25.6 65 18.3 64 64 S 5 7 29.74 1007 10 16.09344 0 0
9:52 pm 21:52 Mostly Clear 77 25 64 17.8 64 64 SSW 8 13 29.74 1007 10 16.09344 0 0
10:52 pm 22:52 Clear 76 24.4 64 17.8 67 67 S 9 15 29.74 1007 10 16.09344 0 0
11:52 pm 23:52 Mostly Clear 74 23.3 64 17.8 71 71 SSW 7 11 29.74 1007 10 16.09344 0 0

Powered by AerisWeather